Time;durP1;ratioP1;P1;durP2;ratioP2;P2;SDS_P1;SDS_P2;PMS_P1;PMS_P2;Temp;Humidity;BMP_temperature;BMP_pressure;BME280_temperature;BME280_humidity;BME280_pressure;Samples;Min_cycle;Max_cycle;Signal;HPM_P1;HPM_P2
2024/01/22 00:00:34;;;;;;;5.55;4.05;;;;;;;;;;5075004;28;20574;-82
2024/01/22 00:03:01;;;;;;;5.88;4.32;;;;;;;;;;5074675;28;20280;-82
2024/01/22 00:05:29;;;;;;;4.13;3.72;;;;;;;;;;5075320;28;20225;-82
2024/01/22 00:07:58;;;;;;;4.22;3.63;;;;;;;;;;5075049;28;20205;-83
2024/01/22 00:10:26;;;;;;;4.70;3.63;;;;;;;;;;5083369;28;20291;-82
2024/01/22 00:12:53;;;;;;;3.38;3.08;;;;;;;;;;5074708;28;20288;-81
2024/01/22 00:15:21;;;;;;;4.90;3.60;;;;;;;;;;5074807;28;20320;-82
2024/01/22 00:17:48;;;;;;;3.85;3.22;;;;;;;;;;5075150;28;20197;-82
2024/01/22 00:20:16;;;;;;;5.68;3.28;;;;;;;;;;5074483;28;20215;-81
2024/01/22 00:22:43;;;;;;;4.18;3.67;;;;;;;;;;5074482;28;20236;-80
2024/01/22 00:25:12;;;;;;;3.72;3.17;;;;;;;;;;5074646;28;20224;-80
2024/01/22 00:27:39;;;;;;;5.18;3.92;;;;;;;;;;5074564;28;20197;-81
2024/01/22 00:30:10;;;;;;;3.85;3.45;;;;;;;;;;5089045;28;20821;-80
2024/01/22 00:32:38;;;;;;;7.03;3.22;;;;;;;;;;5094824;28;20751;-80
2024/01/22 00:35:06;;;;;;;4.30;3.90;;;;;;;;;;5080404;28;20268;-80
2024/01/22 00:37:34;;;;;;;5.13;3.92;;;;;;;;;;5074316;28;20201;-81
2024/01/22 00:40:01;;;;;;;5.68;4.10;;;;;;;;;;5074407;28;20201;-82
2024/01/22 00:42:30;;;;;;;5.05;4.55;;;;;;;;;;5073972;28;20587;-81
2024/01/22 00:44:57;;;;;;;4.55;3.75;;;;;;;;;;5075037;28;20217;-81
2024/01/22 00:47:25;;;;;;;4.30;3.90;;;;;;;;;;5075037;28;20200;-81
2024/01/22 00:49:52;;;;;;;4.15;3.72;;;;;;;;;;5078631;28;20200;-82
2024/01/22 00:52:20;;;;;;;4.47;4.07;;;;;;;;;;5078503;28;20230;-81
2024/01/22 00:54:47;;;;;;;4.45;3.40;;;;;;;;;;5078671;28;20221;-80
2024/01/22 00:57:15;;;;;;;5.38;4.20;;;;;;;;;;5078957;28;20205;-81
2024/01/22 00:59:43;;;;;;;4.40;3.15;;;;;;;;;;5098545;28;20200;-81
2024/01/22 01:02:10;;;;;;;5.38;3.58;;;;;;;;;;5099603;28;20201;-82
2024/01/22 01:04:37;;;;;;;3.72;3.33;;;;;;;;;;5099273;28;20811;-81
2024/01/22 01:07:05;;;;;;;4.03;3.60;;;;;;;;;;5099149;28;20204;-81
2024/01/22 01:09:32;;;;;;;3.80;3.17;;;;;;;;;;5080818;28;20211;-82
2024/01/22 01:12:00;;;;;;;6.93;3.50;;;;;;;;;;5078137;28;20200;-80
2024/01/22 01:14:27;;;;;;;6.00;3.53;;;;;;;;;;5078189;28;20200;-82
2024/01/22 01:16:57;;;;;;;3.88;3.22;;;;;;;;;;5078014;28;20646;-81
2024/01/22 01:19:24;;;;;;;4.10;3.17;;;;;;;;;;5077990;28;20307;-81
2024/01/22 01:21:52;;;;;;;4.13;3.22;;;;;;;;;;5078163;28;20201;-80
2024/01/22 01:24:19;;;;;;;4.00;3.58;;;;;;;;;;5078014;28;20203;-81
2024/01/22 01:26:48;;;;;;;4.72;2.92;;;;;;;;;;5078184;28;20197;-80
2024/01/22 01:29:15;;;;;;;3.67;3.25;;;;;;;;;;5078405;28;20204;-80
2024/01/22 01:31:43;;;;;;;5.90;4.97;;;;;;;;;;5078112;28;20197;-80
2024/01/22 01:34:11;;;;;;;5.40;3.47;;;;;;;;;;5078253;28;20224;-79
2024/01/22 01:36:39;;;;;;;3.70;3.05;;;;;;;;;;5077556;28;20221;-81
2024/01/22 01:39:06;;;;;;;4.28;3.08;;;;;;;;;;5077948;28;20228;-81
2024/01/22 01:41:34;;;;;;;4.93;4.40;;;;;;;;;;5077833;28;20288;-81
2024/01/22 01:44:01;;;;;;;4.00;3.15;;;;;;;;;;5077594;28;20208;-81
2024/01/22 01:46:29;;;;;;;7.03;3.80;;;;;;;;;;5076814;28;20232;-81
2024/01/22 01:48:57;;;;;;;3.65;3.35;;;;;;;;;;5077029;28;20201;-81
2024/01/22 01:51:26;;;;;;;4.22;3.75;;;;;;;;;;5077224;28;20251;-81
2024/01/22 01:53:54;;;;;;;4.30;3.65;;;;;;;;;;5076977;28;20224;-81
2024/01/22 01:56:21;;;;;;;6.85;3.50;;;;;;;;;;5076834;28;20231;-81
2024/01/22 01:58:49;;;;;;;4.28;3.42;;;;;;;;;;5076821;28;20571;-79
2024/01/22 02:01:18;;;;;;;3.67;3.20;;;;;;;;;;5076015;28;20207;-80
2024/01/22 02:03:45;;;;;;;3.95;3.47;;;;;;;;;;5077088;28;20203;-81
2024/01/22 02:06:13;;;;;;;3.88;3.58;;;;;;;;;;5076126;28;20253;-81
2024/01/22 02:08:51;;;;;;;7.10;3.92;;;;;;;;;;5076499;28;20207;-81
2024/01/22 02:11:21;;;;;;;4.00;3.70;;;;;;;;;;5076557;28;20200;-80
2024/01/22 02:13:49;;;;;;;5.85;3.55;;;;;;;;;;5076382;28;20680;-81
2024/01/22 02:16:17;;;;;;;6.43;3.67;;;;;;;;;;5076466;28;20221;-81
2024/01/22 02:18:44;;;;;;;4.03;3.63;;;;;;;;;;5076301;28;20562;-81
2024/01/22 02:21:12;;;;;;;6.25;3.85;;;;;;;;;;5075908;28;20754;-81
2024/01/22 02:23:43;;;;;;;4.63;3.47;;;;;;;;;;5076182;28;20224;-79
2024/01/22 02:26:11;;;;;;;5.57;3.58;;;;;;;;;;5094231;28;20307;-80
2024/01/22 02:28:38;;;;;;;4.97;2.88;;;;;;;;;;5104792;28;20267;-80
2024/01/22 02:31:07;;;;;;;6.75;4.00;;;;;;;;;;5098571;28;20580;-81
2024/01/22 02:33:34;;;;;;;3.20;2.90;;;;;;;;;;5087557;28;20225;-81
2024/01/22 02:36:02;;;;;;;4.32;3.10;;;;;;;;;;5098164;28;20292;-81
2024/01/22 02:38:29;;;;;;;3.83;3.42;;;;;;;;;;5093617;28;20295;-79
2024/01/22 02:40:58;;;;;;;6.00;3.42;;;;;;;;;;5089511;28;20718;-80
2024/01/22 02:43:25;;;;;;;3.50;2.67;;;;;;;;;;5105310;28;20306;-80
2024/01/22 02:45:53;;;;;;;3.88;2.90;;;;;;;;;;5079852;28;20324;-80
2024/01/22 02:48:20;;;;;;;3.70;3.40;;;;;;;;;;5097416;28;20300;-79
2024/01/22 02:50:48;;;;;;;2.88;2.58;;;;;;;;;;5088259;28;20303;-79
2024/01/22 02:53:15;;;;;;;4.30;3.22;;;;;;;;;;5101259;28;20318;-79
2024/01/22 02:55:42;;;;;;;3.38;2.70;;;;;;;;;;5105515;28;20307;-80
2024/01/22 02:58:11;;;;;;;2.97;2.67;;;;;;;;;;5103233;28;20730;-79
2024/01/22 03:00:39;;;;;;;4.72;2.90;;;;;;;;;;5096464;28;20291;-80
2024/01/22 03:03:06;;;;;;;4.25;2.53;;;;;;;;;;5091123;28;20271;-80
2024/01/22 03:05:34;;;;;;;3.60;3.08;;;;;;;;;;5096215;28;20288;-79
2024/01/22 03:08:01;;;;;;;2.75;2.55;;;;;;;;;;5096169;28;20594;-80
2024/01/22 03:10:29;;;;;;;3.17;2.65;;;;;;;;;;5101550;28;20698;-81
2024/01/22 03:12:56;;;;;;;4.82;2.90;;;;;;;;;;5095828;28;20272;-81
2024/01/22 03:15:25;;;;;;;3.08;2.70;;;;;;;;;;5096453;28;20749;-81
2024/01/22 03:17:52;;;;;;;3.63;3.00;;;;;;;;;;5096478;28;20215;-78
2024/01/22 03:20:20;;;;;;;4.20;3.10;;;;;;;;;;5095718;28;20299;-78
2024/01/22 03:22:47;;;;;;;4.55;2.70;;;;;;;;;;5087891;28;20656;-81
2024/01/22 03:25:15;;;;;;;4.80;3.13;;;;;;;;;;5084449;28;20739;-80
2024/01/22 03:27:42;;;;;;;4.10;2.92;;;;;;;;;;5083981;28;20268;-81
2024/01/22 03:30:12;;;;;;;3.45;3.15;;;;;;;;;;5087476;28;20291;-81
2024/01/22 03:32:41;;;;;;;3.10;2.72;;;;;;;;;;5098322;28;20292;-80
2024/01/22 03:35:11;;;;;;;5.57;3.10;;;;;;;;;;5095367;28;20234;-79
2024/01/22 03:37:40;;;;;;;4.40;3.03;;;;;;;;;;5088715;28;20269;-80
2024/01/22 03:40:09;;;;;;;3.22;2.53;;;;;;;;;;5092797;28;20272;-80
2024/01/22 03:42:37;;;;;;;4.32;2.60;;;;;;;;;;5088634;28;20208;-81
2024/01/22 03:45:06;;;;;;;3.22;2.80;;;;;;;;;;5089165;28;20304;-80
2024/01/22 03:47:33;;;;;;;2.95;2.70;;;;;;;;;;5095567;28;20235;-79
2024/01/22 03:50:03;;;;;;;3.88;2.33;;;;;;;;;;5086441;28;20264;-78
2024/01/22 03:52:31;;;;;;;2.80;2.60;;;;;;;;;;5087918;28;20295;-79
2024/01/22 03:54:58;;;;;;;2.90;2.58;;;;;;;;;;5084396;28;20316;-80
2024/01/22 03:57:26;;;;;;;4.10;3.15;;;;;;;;;;5099233;28;20204;-79
2024/01/22 03:59:53;;;;;;;2.33;2.13;;;;;;;;;;5092890;28;20280;-79
2024/01/22 04:02:21;;;;;;;2.50;1.90;;;;;;;;;;5087074;28;20228;-81
2024/01/22 04:04:50;;;;;;;4.00;2.60;;;;;;;;;;5085096;28;20284;-80
2024/01/22 04:07:19;;;;;;;2.38;2.17;;;;;;;;;;5087935;28;20230;-79
2024/01/22 04:09:46;;;;;;;2.70;2.50;;;;;;;;;;5098991;28;20295;-80
2024/01/22 04:12:14;;;;;;;3.45;2.25;;;;;;;;;;5104544;28;20659;-81
2024/01/22 04:14:41;;;;;;;2.42;2.20;;;;;;;;;;5103327;28;20277;-80
2024/01/22 04:17:08;;;;;;;2.90;2.65;;;;;;;;;;5103346;28;20715;-80
2024/01/22 04:19:36;;;;;;;3.70;2.63;;;;;;;;;;5083680;28;20271;-79
2024/01/22 04:22:04;;;;;;;3.70;2.33;;;;;;;;;;5089598;28;20272;-80
2024/01/22 04:24:33;;;;;;;4.15;2.40;;;;;;;;;;5094803;28;20564;-79
2024/01/22 04:27:00;;;;;;;2.15;1.92;;;;;;;;;;5085495;28;20276;-81
2024/01/22 04:29:27;;;;;;;2.45;2.10;;;;;;;;;;5095795;28;20264;-80
2024/01/22 04:31:55;;;;;;;2.47;1.90;;;;;;;;;;5089115;28;20296;-80
2024/01/22 04:34:22;;;;;;;3.08;2.08;;;;;;;;;;5082778;28;20286;-80
2024/01/22 04:36:50;;;;;;;2.45;2.20;;;;;;;;;;5085694;28;20268;-81
2024/01/22 04:39:19;;;;;;;4.95;2.00;;;;;;;;;;5092112;28;20201;-80
2024/01/22 04:41:48;;;;;;;2.17;2.03;;;;;;;;;;5086623;28;20205;-80
2024/01/22 04:44:15;;;;;;;3.08;2.17;;;;;;;;;;5086538;28;20542;-79
2024/01/22 04:46:43;;;;;;;2.45;1.90;;;;;;;;;;5094541;28;20759;-78
2024/01/22 04:49:10;;;;;;;3.00;1.90;;;;;;;;;;5095421;28;20208;-81
2024/01/22 04:51:41;;;;;;;2.15;1.95;;;;;;;;;;5104151;28;20207;-81
2024/01/22 04:54:08;;;;;;;3.30;2.13;;;;;;;;;;5093262;28;20283;-81
2024/01/22 04:56:41;;;;;;;2.63;2.30;;;;;;;;;;5100415;28;20330;-79
2024/01/22 04:59:10;;;;;;;1.85;1.73;;;;;;;;;;5087441;28;20228;-81
2024/01/22 05:01:37;;;;;;;2.35;1.85;;;;;;;;;;5093052;28;20208;-79
2024/01/22 05:04:05;;;;;;;2.97;2.05;;;;;;;;;;5087940;28;20279;-80
2024/01/22 05:06:33;;;;;;;2.63;1.85;;;;;;;;;;5090601;28;20310;-80
2024/01/22 05:09:00;;;;;;;4.10;2.10;;;;;;;;;;5083987;28;20228;-81
2024/01/22 05:11:28;;;;;;;2.38;1.60;;;;;;;;;;5087793;28;20265;-79
2024/01/22 05:13:56;;;;;;;2.40;2.20;;;;;;;;;;5089582;28;20269;-79
2024/01/22 05:16:25;;;;;;;1.88;1.67;;;;;;;;;;5088724;28;20249;-80
2024/01/22 05:18:53;;;;;;;2.08;1.83;;;;;;;;;;5089449;28;20291;-81
2024/01/22 05:21:21;;;;;;;2.33;1.95;;;;;;;;;;5104676;28;20234;-80
2024/01/22 05:23:49;;;;;;;2.13;1.88;;;;;;;;;;5104813;28;20201;-81
2024/01/22 05:26:16;;;;;;;4.55;2.60;;;;;;;;;;5099517;28;20247;-81
2024/01/22 05:28:44;;;;;;;1.67;1.58;;;;;;;;;;5087477;28;20205;-82
2024/01/22 05:31:11;;;;;;;2.60;2.10;;;;;;;;;;5091247;28;20231;-81
2024/01/22 05:33:40;;;;;;;1.65;1.55;;;;;;;;;;5101240;28;20283;-81
2024/01/22 05:36:09;;;;;;;2.03;1.83;;;;;;;;;;5097766;28;20292;-79
2024/01/22 05:38:39;;;;;;;4.18;2.13;;;;;;;;;;5100200;28;20264;-79
2024/01/22 05:41:06;;;;;;;3.25;1.98;;;;;;;;;;5107471;28;20255;-81
2024/01/22 05:43:34;;;;;;;2.45;1.67;;;;;;;;;;5090835;28;20272;-80
2024/01/22 05:46:01;;;;;;;3.58;2.03;;;;;;;;;;5087253;28;20303;-81
2024/01/22 05:48:29;;;;;;;2.50;2.20;;;;;;;;;;5101064;28;20298;-80
2024/01/22 05:50:57;;;;;;;2.67;2.17;;;;;;;;;;5098361;28;20247;-78
2024/01/22 05:53:25;;;;;;;2.22;1.83;;;;;;;;;;5095945;28;20201;-82
2024/01/22 05:55:52;;;;;;;4.63;2.03;;;;;;;;;;5089612;28;20251;-80
2024/01/22 05:58:20;;;;;;;2.97;2.00;;;;;;;;;;5095255;28;20280;-78
2024/01/22 06:00:47;;;;;;;3.05;2.05;;;;;;;;;;5090767;28;20707;-79
2024/01/22 06:03:15;;;;;;;2.78;2.58;;;;;;;;;;5094661;28;20224;-80
2024/01/22 06:05:42;;;;;;;2.60;2.40;;;;;;;;;;5093706;28;20296;-78
2024/01/22 06:08:11;;;;;;;6.13;3.10;;;;;;;;;;5094208;28;20264;-82
2024/01/22 06:10:38;;;;;;;2.67;2.35;;;;;;;;;;5094628;28;20242;-80
2024/01/22 06:13:06;;;;;;;2.42;2.22;;;;;;;;;;5102681;28;20239;-81
2024/01/22 06:15:34;;;;;;;2.33;2.10;;;;;;;;;;5092159;28;20651;-81
2024/01/22 06:18:01;;;;;;;1.77;1.67;;;;;;;;;;5090599;28;20212;-81
2024/01/22 06:20:29;;;;;;;1.60;1.50;;;;;;;;;;5086037;28;20303;-80
2024/01/22 06:22:57;;;;;;;2.15;1.85;;;;;;;;;;5090333;28;20208;-80
2024/01/22 06:25:26;;;;;;;2.67;2.03;;;;;;;;;;5094020;28;20710;-80
2024/01/22 06:27:53;;;;;;;2.17;1.98;;;;;;;;;;5100995;28;20197;-80
2024/01/22 06:30:21;;;;;;;2.35;1.90;;;;;;;;;;5093237;28;20288;-81
2024/01/22 06:32:48;;;;;;;3.38;2.25;;;;;;;;;;5102569;28;20324;-82
2024/01/22 06:35:16;;;;;;;4.03;2.85;;;;;;;;;;5087999;28;20311;-80
2024/01/22 06:37:43;;;;;;;1.80;1.70;;;;;;;;;;5088172;28;20201;-81
2024/01/22 06:40:12;;;;;;;5.10;2.00;;;;;;;;;;5101583;28;20235;-78
2024/01/22 06:42:41;;;;;;;2.08;1.85;;;;;;;;;;5096573;28;20739;-80
2024/01/22 06:45:09;;;;;;;2.25;1.98;;;;;;;;;;5093938;28;20683;-82
2024/01/22 06:47:36;;;;;;;3.13;1.70;;;;;;;;;;5088911;28;20287;-79
2024/01/22 06:50:04;;;;;;;1.95;1.58;;;;;;;;;;5088459;28;20277;-80
2024/01/22 06:52:32;;;;;;;1.70;1.60;;;;;;;;;;5086005;28;20232;-80
2024/01/22 06:55:02;;;;;;;2.20;2.00;;;;;;;;;;5096099;28;20228;-81
2024/01/22 06:57:30;;;;;;;2.42;2.22;;;;;;;;;;5082473;28;20224;-82
2024/01/22 07:00:02;;;;;;;3.17;2.67;;;;;;;;;;5096078;28;20193;-82
2024/01/22 07:02:30;;;;;;;1.67;1.58;;;;;;;;;;5095677;28;20616;-83
2024/01/22 07:04:57;;;;;;;2.55;1.70;;;;;;;;;;5091893;28;20302;-83
2024/01/22 07:07:25;;;;;;;2.65;2.08;;;;;;;;;;5088693;28;20262;-84
2024/01/22 07:09:53;;;;;;;1.80;1.70;;;;;;;;;;5090955;28;20200;-83
2024/01/22 07:12:21;;;;;;;3.10;2.00;;;;;;;;;;5097839;28;20200;-83
2024/01/22 07:14:49;;;;;;;2.42;1.80;;;;;;;;;;5096925;28;20220;-84
2024/01/22 07:17:19;;;;;;;1.63;1.52;;;;;;;;;;5097377;28;20216;-84
2024/01/22 07:19:47;;;;;;;1.73;1.63;;;;;;;;;;5096950;28;20200;-86
2024/01/22 07:22:15;;;;;;;1.70;1.60;;;;;;;;;;5097393;28;20271;-84
2024/01/22 07:24:42;;;;;;;1.73;1.63;;;;;;;;;;5096691;28;20569;-85
2024/01/22 07:27:10;;;;;;;2.25;2.05;;;;;;;;;;5094023;28;20738;-83
2024/01/22 07:29:37;;;;;;;4.68;1.65;;;;;;;;;;5093572;28;20211;-83
2024/01/22 07:32:05;;;;;;;2.90;2.70;;;;;;;;;;5087022;28;20204;-84
2024/01/22 07:34:34;;;;;;;2.25;2.15;;;;;;;;;;5096570;28;20235;-84
2024/01/22 07:37:01;;;;;;;2.08;1.35;;;;;;;;;;5083562;28;20303;-83
2024/01/22 07:39:29;;;;;;;1.88;1.70;;;;;;;;;;5088897;28;20284;-84
2024/01/22 07:41:56;;;;;;;3.40;1.80;;;;;;;;;;5093121;28;20200;-84
2024/01/22 07:44:24;;;;;;;2.88;1.63;;;;;;;;;;5096143;28;20624;-83
2024/01/22 07:46:51;;;;;;;4.93;1.83;;;;;;;;;;5095830;28;20210;-84
2024/01/22 07:49:19;;;;;;;3.35;2.00;;;;;;;;;;5082600;28;20196;-82
2024/01/22 07:51:48;;;;;;;1.75;1.65;;;;;;;;;;5095876;28;20196;-83
2024/01/22 07:54:15;;;;;;;3.15;1.80;;;;;;;;;;5096407;28;20197;-84
2024/01/22 07:56:42;;;;;;;1.88;1.77;;;;;;;;;;5093654;28;20593;-84
2024/01/22 07:59:10;;;;;;;1.98;1.55;;;;;;;;;;5096787;28;20198;-83
2024/01/22 08:01:37;;;;;;;1.88;1.77;;;;;;;;;;5097454;28;20565;-82
2024/01/22 08:04:05;;;;;;;2.83;1.83;;;;;;;;;;5087299;28;20264;-82
2024/01/22 08:06:32;;;;;;;1.80;1.42;;;;;;;;;;5087365;28;20224;-83
2024/01/22 08:09:02;;;;;;;1.65;1.55;;;;;;;;;;5084940;28;20204;-82
2024/01/22 08:11:29;;;;;;;1.52;1.42;;;;;;;;;;5093668;28;20204;-82
2024/01/22 08:13:56;;;;;;;1.55;1.30;;;;;;;;;;5089365;28;20192;-83
2024/01/22 08:16:24;;;;;;;2.65;1.55;;;;;;;;;;5096885;28;20231;-84
2024/01/22 08:18:51;;;;;;;1.50;1.42;;;;;;;;;;5093923;28;20304;-85
2024/01/22 08:21:19;;;;;;;1.48;1.23;;;;;;;;;;5082709;28;20696;-83
2024/01/22 08:23:46;;;;;;;1.77;1.67;;;;;;;;;;5083574;28;20260;-83
2024/01/22 08:26:15;;;;;;;2.42;1.65;;;;;;;;;;5096256;28;20220;-83
2024/01/22 08:28:44;;;;;;;1.20;1.10;;;;;;;;;;5090790;28;20287;-83
2024/01/22 08:31:12;;;;;;;1.45;1.17;;;;;;;;;;5092078;28;20208;-82
2024/01/22 08:33:39;;;;;;;1.20;1.10;;;;;;;;;;5096142;28;20206;-81
2024/01/22 14:35:59;;;;;;;0.70;0.60;;;;;;;;;;5069097;28;20324;-80
2024/01/22 14:38:27;;;;;;;0.60;0.60;;;;;;;;;;5106030;28;20225;-80
2024/01/22 14:40:55;;;;;;;0.50;0.50;;;;;;;;;;5114356;28;20226;-79
2024/01/22 14:43:22;;;;;;;0.50;0.50;;;;;;;;;;5095792;28;20208;-79
2024/01/22 14:45:50;;;;;;;0.40;0.40;;;;;;;;;;5112147;28;20220;-78
2024/01/22 14:48:19;;;;;;;1.23;0.60;;;;;;;;;;5110309;28;20192;-79
2024/01/22 14:50:47;;;;;;;0.80;0.80;;;;;;;;;;5097623;28;20196;-80
2024/01/22 14:53:16;;;;;;;0.77;0.68;;;;;;;;;;5117269;28;20203;-79
2024/01/22 14:55:43;;;;;;;1.35;1.00;;;;;;;;;;5118816;28;20716;-81
2024/01/22 14:58:11;;;;;;;1.35;1.25;;;;;;;;;;5111432;28;20282;-80
2024/01/22 15:00:38;;;;;;;6.20;2.20;;;;;;;;;;5113349;28;20267;-80
2024/01/22 15:03:06;;;;;;;1.55;1.27;;;;;;;;;;5108650;28;20714;-79
2024/01/22 15:05:34;;;;;;;1.75;1.38;;;;;;;;;;5101752;28;20221;-81
2024/01/22 15:08:01;;;;;;;1.33;1.20;;;;;;;;;;5097394;28;20664;-80
2024/01/22 15:10:32;;;;;;;3.35;1.48;;;;;;;;;;5100734;28;20238;-81
2024/01/22 15:13:01;;;;;;;3.17;2.10;;;;;;;;;;5113077;28;20209;-81
2024/01/22 15:15:29;;;;;;;2.72;1.25;;;;;;;;;;5096922;28;20252;-79
2024/01/22 15:17:56;;;;;;;7.50;2.80;;;;;;;;;;5106201;28;20226;-78
2024/01/22 15:20:25;;;;;;;3.17;1.15;;;;;;;;;;5114996;28;20228;-80
2024/01/22 15:22:52;;;;;;;2.50;1.42;;;;;;;;;;5107045;28;20201;-79
2024/01/22 15:25:23;;;;;;;2.17;1.30;;;;;;;;;;5108005;28;20254;-82
2024/01/22 15:27:52;;;;;;;1.67;1.25;;;;;;;;;;5107295;28;20667;-81
2024/01/22 15:30:19;;;;;;;0.90;0.90;;;;;;;;;;5119551;28;20636;-82
2024/01/22 15:32:46;;;;;;;2.88;2.05;;;;;;;;;;5111510;28;20573;-82
2024/01/22 15:35:14;;;;;;;2.47;1.52;;;;;;;;;;5103194;28;20247;-82
2024/01/22 15:37:42;;;;;;;1.27;1.02;;;;;;;;;;5098545;28;20629;-81
2024/01/22 15:40:11;;;;;;;4.68;1.80;;;;;;;;;;5100041;28;20762;-82
2024/01/22 15:42:38;;;;;;;5.07;1.98;;;;;;;;;;5099964;28;20199;-82
2024/01/22 15:45:08;;;;;;;3.20;2.47;;;;;;;;;;5095170;28;20286;-82
2024/01/22 15:47:36;;;;;;;3.58;1.42;;;;;;;;;;5089522;28;20200;-82
2024/01/22 15:50:05;;;;;;;4.60;1.83;;;;;;;;;;5097710;28;20196;-82
2024/01/22 15:52:32;;;;;;;0.85;0.80;;;;;;;;;;5097936;28;20200;-82
2024/01/22 15:54:59;;;;;;;1.90;1.00;;;;;;;;;;5092941;28;20280;-82
2024/01/22 15:57:27;;;;;;;6.18;1.55;;;;;;;;;;5093418;28;20279;-82
2024/01/22 15:59:54;;;;;;;4.88;2.33;;;;;;;;;;5097943;28;20749;-82
2024/01/22 16:02:23;;;;;;;2.15;1.40;;;;;;;;;;5095443;28;20291;-82
2024/01/22 16:04:51;;;;;;;1.17;0.95;;;;;;;;;;5093476;28;20221;-82
2024/01/22 16:07:18;;;;;;;2.88;1.40;;;;;;;;;;5091682;28;20300;-82
2024/01/22 16:09:45;;;;;;;1.23;1.08;;;;;;;;;;5098754;28;20287;-82
2024/01/22 16:12:13;;;;;;;2.28;1.20;;;;;;;;;;5099473;28;20296;-81
2024/01/22 16:14:40;;;;;;;1.58;1.10;;;;;;;;;;5095487;28;20291;-82
2024/01/22 16:17:08;;;;;;;1.23;0.95;;;;;;;;;;5088232;28;20279;-82
2024/01/22 16:19:37;;;;;;;1.85;1.02;;;;;;;;;;5092609;28;20220;-82
2024/01/22 16:22:05;;;;;;;1.80;1.27;;;;;;;;;;5097410;28;20286;-82
2024/01/22 16:24:32;;;;;;;2.45;1.27;;;;;;;;;;5098676;28;20204;-82
2024/01/22 16:27:00;;;;;;;2.15;1.10;;;;;;;;;;5090035;28;20228;-82
2024/01/22 16:29:28;;;;;;;1.10;1.00;;;;;;;;;;5098299;28;20632;-81
2024/01/22 16:31:56;;;;;;;3.83;1.17;;;;;;;;;;5095290;28;20681;-82
2024/01/22 16:34:23;;;;;;;0.88;0.88;;;;;;;;;;5092694;28;20272;-82
2024/01/22 16:36:52;;;;;;;2.28;1.23;;;;;;;;;;5094683;28;20214;-82
2024/01/22 16:39:19;;;;;;;1.95;1.10;;;;;;;;;;5099103;28;20314;-82
2024/01/22 16:41:47;;;;;;;1.23;0.95;;;;;;;;;;5091797;28;20235;-83
2024/01/22 16:44:15;;;;;;;1.13;1.02;;;;;;;;;;5091895;28;20224;-82
2024/01/22 16:46:43;;;;;;;2.55;1.15;;;;;;;;;;5091479;28;20246;-82
2024/01/22 16:49:11;;;;;;;2.40;1.10;;;;;;;;;;5098318;28;20231;-82
2024/01/22 16:51:38;;;;;;;5.93;1.63;;;;;;;;;;5097922;28;20246;-82
2024/01/22 16:54:07;;;;;;;1.65;1.17;;;;;;;;;;5092695;28;20199;-82
2024/01/22 16:56:34;;;;;;;2.30;1.63;;;;;;;;;;5095075;28;20631;-80
2024/01/22 16:59:03;;;;;;;2.63;1.40;;;;;;;;;;5097052;28;20283;-80
2024/01/22 17:01:30;;;;;;;2.53;1.70;;;;;;;;;;5087819;28;20211;-80
2024/01/22 17:03:58;;;;;;;3.25;1.48;;;;;;;;;;5097225;28;20342;-80
2024/01/22 17:06:25;;;;;;;3.95;1.95;;;;;;;;;;5099459;28;20311;-79
2024/01/22 17:08:53;;;;;;;3.33;1.52;;;;;;;;;;5095226;28;20287;-79
2024/01/22 17:11:23;;;;;;;2.08;1.50;;;;;;;;;;5095719;28;20187;-80
2024/01/22 17:13:50;;;;;;;4.38;1.50;;;;;;;;;;5092488;28;20201;-81
2024/01/22 17:16:18;;;;;;;2.72;1.50;;;;;;;;;;5100383;28;20216;-81
2024/01/22 17:18:45;;;;;;;1.83;1.25;;;;;;;;;;5097263;28;20200;-80
2024/01/22 17:21:14;;;;;;;5.13;1.25;;;;;;;;;;5096786;28;20255;-82
2024/01/22 17:23:41;;;;;;;1.58;1.20;;;;;;;;;;5087908;28;20196;-81
2024/01/22 17:26:10;;;;;;;1.85;1.27;;;;;;;;;;5100277;28;20255;-80
2024/01/22 17:28:39;;;;;;;1.10;1.00;;;;;;;;;;5097638;28;20208;-80
2024/01/22 17:31:07;;;;;;;1.65;1.30;;;;;;;;;;5097285;28;20224;-80
2024/01/22 17:33:36;;;;;;;2.25;1.35;;;;;;;;;;5100247;28;20238;-81
2024/01/22 17:36:07;;;;;;;3.70;1.20;;;;;;;;;;5100492;28;20884;-81
2024/01/22 17:38:35;;;;;;;4.75;1.75;;;;;;;;;;5100844;28;20643;-81
2024/01/22 17:41:04;;;;;;;4.93;1.65;;;;;;;;;;5099243;28;20220;-81
2024/01/22 17:43:32;;;;;;;2.28;1.75;;;;;;;;;;5096143;28;20661;-80
2024/01/22 17:46:01;;;;;;;2.63;1.40;;;;;;;;;;5098330;28;20308;-80
2024/01/22 17:48:29;;;;;;;3.30;1.60;;;;;;;;;;5103276;28;20192;-80
2024/01/22 17:50:57;;;;;;;3.28;1.60;;;;;;;;;;5093565;28;20193;-80
2024/01/22 17:53:25;;;;;;;3.25;1.83;;;;;;;;;;5091738;28;20218;-81
2024/01/22 17:55:52;;;;;;;5.75;2.00;;;;;;;;;;5099809;28;20254;-80
2024/01/22 17:58:20;;;;;;;6.80;1.60;;;;;;;;;;5104082;28;20274;-80
2024/01/22 18:00:47;;;;;;;3.35;1.58;;;;;;;;;;5103075;28;20311;-80
2024/01/22 18:03:16;;;;;;;4.55;1.77;;;;;;;;;;5100987;28;20199;-80
2024/01/22 18:05:43;;;;;;;4.72;2.08;;;;;;;;;;5095386;28;20656;-81
2024/01/22 18:08:13;;;;;;;3.28;2.00;;;;;;;;;;5101473;28;20682;-80
2024/01/22 18:10:40;;;;;;;4.75;2.83;;;;;;;;;;5099125;28;20239;-80
2024/01/22 18:13:07;;;;;;;7.93;2.33;;;;;;;;;;5095435;28;20199;-80
2024/01/22 18:15:35;;;;;;;2.33;1.48;;;;;;;;;;5100633;28;20673;-79
2024/01/22 18:18:02;;;;;;;3.90;2.10;;;;;;;;;;5100989;28;20200;-80
2024/01/22 18:20:31;;;;;;;3.03;1.65;;;;;;;;;;5100690;28;20231;-80
2024/01/22 18:22:59;;;;;;;2.85;1.65;;;;;;;;;;5092501;28;20284;-81
2024/01/22 18:25:26;;;;;;;4.65;2.47;;;;;;;;;;5100236;28;20284;-81
2024/01/22 18:27:55;;;;;;;3.55;1.60;;;;;;;;;;5093632;28;20265;-81
2024/01/22 18:30:22;;;;;;;2.85;2.00;;;;;;;;;;5099581;28;20200;-82
2024/01/22 18:32:50;;;;;;;2.83;1.65;;;;;;;;;;5095968;28;20212;-80
2024/01/22 18:35:17;;;;;;;6.25;2.13;;;;;;;;;;5098688;28;20244;-82
2024/01/22 18:37:46;;;;;;;8.23;3.53;;;;;;;;;;5086030;28;20429;-84
2024/01/22 18:40:14;;;;;;;3.92;2.85;;;;;;;;;;5098144;28;20196;-84
2024/01/22 18:42:41;;;;;;;4.85;2.42;;;;;;;;;;5099917;28;20287;-82
2024/01/22 18:45:09;;;;;;;3.72;1.77;;;;;;;;;;5096029;28;20243;-84
2024/01/22 18:47:37;;;;;;;4.13;1.67;;;;;;;;;;5094560;28;20240;-82
2024/01/22 18:50:05;;;;;;;2.15;1.63;;;;;;;;;;5101210;28;20270;-84
2024/01/22 18:52:33;;;;;;;3.95;1.80;;;;;;;;;;5096243;28;20208;-82
2024/01/22 18:55:03;;;;;;;5.25;2.00;;;;;;;;;;5092222;28;20311;-85
2024/01/22 18:57:31;;;;;;;1.50;1.13;;;;;;;;;;5108233;28;20209;-84
2024/01/22 18:59:58;;;;;;;3.72;1.80;;;;;;;;;;5096192;28;20264;-82
2024/01/22 19:02:25;;;;;;;2.72;2.05;;;;;;;;;;5101012;28;20291;-82
2024/01/22 19:04:54;;;;;;;6.60;2.00;;;;;;;;;;5101300;28;20288;-85
2024/01/22 19:07:21;;;;;;;3.33;1.67;;;;;;;;;;5106877;28;20203;-82
2024/01/22 19:09:49;;;;;;;5.43;2.20;;;;;;;;;;5097659;28;20292;-84
2024/01/22 19:12:18;;;;;;;3.45;1.63;;;;;;;;;;5101091;28;20534;-83
2024/01/22 19:14:45;;;;;;;2.92;1.50;;;;;;;;;;5098294;28;20224;-83
2024/01/22 19:17:13;;;;;;;7.40;2.35;;;;;;;;;;5090609;28;20252;-84
2024/01/22 19:19:41;;;;;;;6.50;2.90;;;;;;;;;;5101647;28;20267;-85
2024/01/22 19:22:09;;;;;;;4.78;2.42;;;;;;;;;;5095868;28;20238;-83
2024/01/22 19:24:36;;;;;;;3.92;1.98;;;;;;;;;;5098601;28;20204;-84
2024/01/22 19:27:04;;;;;;;3.88;2.03;;;;;;;;;;5096788;28;20294;-83
2024/01/22 19:29:33;;;;;;;6.25;2.13;;;;;;;;;;5092967;28;20193;-83
2024/01/22 19:32:01;;;;;;;5.72;2.70;;;;;;;;;;5104238;28;20203;-84
2024/01/22 19:34:28;;;;;;;2.90;1.60;;;;;;;;;;5091174;28;20671;-84
2024/01/22 19:36:57;;;;;;;5.07;3.05;;;;;;;;;;5104423;28;20208;-84
2024/01/22 19:39:24;;;;;;;4.60;1.90;;;;;;;;;;5097436;28;20290;-83
2024/01/22 19:41:52;;;;;;;3.83;1.70;;;;;;;;;;5105549;28;20773;-83
2024/01/22 19:44:19;;;;;;;5.05;1.70;;;;;;;;;;5099721;28;20206;-85
2024/01/22 19:46:49;;;;;;;4.30;2.25;;;;;;;;;;5101143;28;20277;-84
2024/01/22 19:49:17;;;;;;;4.22;2.05;;;;;;;;;;5100565;28;20200;-83
2024/01/22 19:51:45;;;;;;;5.40;1.80;;;;;;;;;;5093014;28;20287;-83
2024/01/22 19:54:15;;;;;;;3.72;1.63;;;;;;;;;;5095846;28;20300;-84
2024/01/22 19:56:44;;;;;;;4.47;1.90;;;;;;;;;;5092162;28;20217;-81
2024/01/22 19:59:11;;;;;;;8.38;2.20;;;;;;;;;;5098782;28;20204;-81
2024/01/22 20:01:38;;;;;;;3.42;2.22;;;;;;;;;;5107436;28;20224;-80
2024/01/22 20:04:07;;;;;;;7.20;2.75;;;;;;;;;;5103674;28;20231;-80
2024/01/22 20:06:35;;;;;;;3.50;2.03;;;;;;;;;;5094627;28;20224;-81
2024/01/22 20:09:02;;;;;;;3.28;1.92;;;;;;;;;;5091063;28;20204;-80
2024/01/22 20:11:30;;;;;;;4.13;1.75;;;;;;;;;;5096062;28;20200;-80
2024/01/22 20:13:57;;;;;;;2.30;1.50;;;;;;;;;;5096062;28;20292;-81
2024/01/22 20:16:26;;;;;;;4.43;1.50;;;;;;;;;;5090758;28;20319;-81
2024/01/22 20:18:53;;;;;;;4.57;1.67;;;;;;;;;;5093142;28;20261;-80
2024/01/22 20:21:22;;;;;;;4.15;2.13;;;;;;;;;;5093977;28;20215;-79
2024/01/22 20:23:50;;;;;;;3.33;1.65;;;;;;;;;;5089727;28;20210;-81
2024/01/22 20:26:17;;;;;;;3.13;1.48;;;;;;;;;;5100902;28;20259;-79
2024/01/22 20:28:46;;;;;;;4.20;1.70;;;;;;;;;;5088934;28;20294;-81
2024/01/22 20:31:13;;;;;;;2.25;1.50;;;;;;;;;;5089359;28;20222;-80
2024/01/22 20:33:41;;;;;;;7.53;1.40;;;;;;;;;;5091430;28;20230;-81
2024/01/22 20:36:09;;;;;;;2.75;1.55;;;;;;;;;;5100259;28;20230;-79
2024/01/22 20:38:37;;;;;;;3.72;2.00;;;;;;;;;;5091211;28;20205;-81
2024/01/22 20:41:05;;;;;;;6.25;2.75;;;;;;;;;;5090312;28;20275;-80
2024/01/22 20:43:32;;;;;;;5.07;2.35;;;;;;;;;;5092357;28;20224;-80
2024/01/22 20:46:00;;;;;;;4.18;2.00;;;;;;;;;;5096702;28;20612;-80